Time;durP1;ratioP1;P1;durP2;ratioP2;P2;SDS_P1;SDS_P2;PMS_P1;PMS_P2;Temp;Humidity;BMP_temperature;BMP_pressure;BME280_temperature;BME280_humidity;BME280_pressure;Samples;Min_cycle;Max_cycle;Signal;HPM_P1;HPM_P2
2024/04/03 00:00:35;;;;;;;1.20;0.70;;;22.80;47.30;;;;;;5009075;28;20028;-65
2024/04/03 00:03:01;;;;;;;1.83;0.90;;;22.80;47.20;;;;;;5007854;28;20065;-64
2024/04/03 00:05:27;;;;;;;2.10;0.90;;;22.80;47.20;;;;;;5008589;28;20076;-64
2024/04/03 00:07:53;;;;;;;2.85;0.90;;;22.80;47.20;;;;;;5008766;28;20034;-64
2024/04/03 00:10:19;;;;;;;1.98;0.80;;;22.80;47.20;;;;;;5008651;28;20061;-64
2024/04/03 00:12:45;;;;;;;1.65;0.90;;;22.80;47.30;;;;;;5008945;28;20030;-65
2024/04/03 00:15:12;;;;;;;1.40;0.77;;;22.70;47.20;;;;;;5008718;28;20479;-65
2024/04/03 00:17:37;;;;;;;1.30;0.80;;;22.70;47.20;;;;;;5008772;28;20100;-65
2024/04/03 00:20:04;;;;;;;0.85;0.70;;;22.70;47.20;;;;;;5008080;28;20052;-65
2024/04/03 00:22:30;;;;;;;1.65;0.80;;;22.70;47.30;;;;;;5008756;28;20018;-65
2024/04/03 00:24:55;;;;;;;1.88;0.90;;;22.70;47.20;;;;;;5008367;28;20544;-65
2024/04/03 00:27:21;;;;;;;1.08;0.70;;;22.70;47.20;;;;;;5008764;28;20053;-65
2024/04/03 00:29:47;;;;;;;1.90;0.90;;;22.70;47.30;;;;;;5008347;28;20041;-65
2024/04/03 00:32:12;;;;;;;1.20;0.68;;;22.70;47.30;;;;;;4990914;28;20080;-65
2024/04/03 00:34:39;;;;;;;1.95;0.93;;;22.70;47.30;;;;;;5007882;28;20104;-65
2024/04/03 00:37:05;;;;;;;2.25;0.90;;;22.70;47.30;;;;;;5008556;28;20045;-65
2024/04/03 00:39:31;;;;;;;1.27;0.80;;;22.70;47.30;;;;;;5008327;28;20550;-65
2024/04/03 00:41:56;;;;;;;0.95;0.70;;;22.60;47.20;;;;;;5008645;28;20113;-65
2024/04/03 00:44:22;;;;;;;1.63;0.70;;;22.70;47.30;;;;;;5008735;28;20030;-64
2024/04/03 00:46:48;;;;;;;1.67;0.70;;;22.70;47.30;;;;;;4984731;28;20026;-64
2024/04/03 00:49:14;;;;;;;1.73;0.80;;;22.70;47.30;;;;;;5007401;28;20032;-65
2024/04/03 00:51:41;;;;;;;1.25;0.75;;;22.60;47.20;;;;;;5011893;28;20038;-65
2024/04/03 00:54:07;;;;;;;1.85;0.95;;;22.60;47.20;;;;;;5011730;28;20048;-65
2024/04/03 00:56:34;;;;;;;1.60;0.80;;;22.60;47.20;;;;;;5011891;28;20117;-64
2024/04/03 00:58:59;;;;;;;0.95;0.73;;;22.60;47.30;;;;;;5011965;28;20037;-64
2024/04/03 01:01:25;;;;;;;1.92;1.00;;;22.60;47.30;;;;;;5012242;28;20029;-65
2024/04/03 01:03:51;;;;;;;1.70;0.80;;;22.60;47.30;;;;;;5010643;28;20075;-64
2024/04/03 01:06:16;;;;;;;1.13;0.68;;;22.60;47.30;;;;;;5011637;28;20481;-65
2024/04/03 01:08:42;;;;;;;1.85;0.80;;;22.60;47.30;;;;;;5011490;28;20624;-64
2024/04/03 01:11:07;;;;;;;1.58;0.77;;;22.50;47.20;;;;;;5011582;28;20049;-64
2024/04/03 01:13:33;;;;;;;2.00;0.88;;;22.60;47.30;;;;;;5011432;28;20038;-64
2024/04/03 01:16:04;;;;;;;0.85;0.65;;;22.50;47.30;;;;;;5011572;28;20093;-65
2024/04/03 01:18:30;;;;;;;1.77;0.80;;;22.60;47.30;;;;;;5010161;28;20040;-65
2024/04/03 01:20:56;;;;;;;1.42;0.70;;;22.50;47.30;;;;;;5011506;28;20034;-65
2024/04/03 01:23:24;;;;;;;1.48;0.90;;;22.50;47.30;;;;;;5011445;28;20497;-65
2024/04/03 01:25:50;;;;;;;1.23;0.80;;;22.50;47.30;;;;;;5011161;28;20026;-65
2024/04/03 01:28:21;;;;;;;1.33;0.70;;;22.50;47.30;;;;;;5011346;28;20221;-65
2024/04/03 01:30:46;;;;;;;1.15;0.70;;;22.50;47.30;;;;;;4993729;28;20501;-65
2024/04/03 01:33:12;;;;;;;1.25;0.88;;;22.50;47.30;;;;;;5011291;28;20041;-65
2024/04/03 01:35:38;;;;;;;1.83;0.90;;;22.50;47.30;;;;;;5010096;28;20483;-65
2024/04/03 01:38:04;;;;;;;1.27;0.80;;;22.50;47.30;;;;;;5011117;28;20128;-65
2024/04/03 01:40:29;;;;;;;2.33;0.88;;;22.50;47.30;;;;;;5010681;28;20025;-65
2024/04/03 01:42:55;;;;;;;1.23;0.80;;;22.40;47.30;;;;;;5011168;28;20037;-65
2024/04/03 01:45:21;;;;;;;1.83;0.70;;;22.40;47.30;;;;;;5011075;28;20393;-65
2024/04/03 01:47:47;;;;;;;1.40;0.80;;;22.50;47.30;;;;;;5011172;28;20074;-65
2024/04/03 01:50:19;;;;;;;1.60;0.90;;;22.40;47.30;;;;;;5009843;28;20029;-65
2024/04/03 01:52:44;;;;;;;1.85;0.68;;;22.40;47.30;;;;;;5011092;28;20145;-62
2024/04/03 01:55:10;;;;;;;1.65;0.70;;;22.40;47.30;;;;;;5010684;28;20132;-62
2024/04/03 01:57:35;;;;;;;1.05;0.80;;;22.40;47.30;;;;;;5010823;28;20018;-61
2024/04/03 02:00:01;;;;;;;1.80;0.80;;;22.40;47.30;;;;;;5010631;28;20034;-63
2024/04/03 02:02:27;;;;;;;1.67;0.93;;;22.40;47.40;;;;;;5008303;28;20449;-65
2024/04/03 02:04:52;;;;;;;1.38;0.85;;;22.40;47.40;;;;;;5009794;28;20052;-65
2024/04/03 02:07:18;;;;;;;0.80;0.60;;;22.40;47.40;;;;;;5010538;28;20041;-65
2024/04/03 02:09:44;;;;;;;1.52;0.80;;;22.30;47.30;;;;;;4987204;28;20030;-65
2024/04/03 02:12:09;;;;;;;0.80;0.70;;;22.40;47.40;;;;;;5010586;28;20040;-65
2024/04/03 02:14:35;;;;;;;1.15;0.70;;;22.30;47.40;;;;;;4992378;28;20474;-65
2024/04/03 02:17:00;;;;;;;1.65;0.75;;;22.30;47.40;;;;;;5010269;28;20053;-64
2024/04/03 02:19:26;;;;;;;0.85;0.70;;;22.30;47.40;;;;;;5009300;28;20386;-64
2024/04/03 02:21:52;;;;;;;1.42;0.70;;;22.30;47.40;;;;;;5010220;28;20022;-64
2024/04/03 02:24:18;;;;;;;1.17;0.70;;;22.30;47.40;;;;;;5010318;28;20035;-64
2024/04/03 02:26:43;;;;;;;1.05;0.70;;;22.30;47.40;;;;;;5010217;28;20033;-65
2024/04/03 02:29:09;;;;;;;1.83;0.90;;;22.30;47.40;;;;;;5010120;28;20959;-64
2024/04/03 02:31:34;;;;;;;1.48;0.80;;;22.30;47.40;;;;;;5010152;28;20038;-64
2024/04/03 02:34:00;;;;;;;1.33;0.75;;;22.30;47.40;;;;;;5008915;28;20148;-65
2024/04/03 02:36:25;;;;;;;1.48;0.80;;;22.30;47.40;;;;;;5009683;28;20105;-65
2024/04/03 02:38:51;;;;;;;1.10;0.60;;;22.30;47.40;;;;;;5009889;28;20028;-64
2024/04/03 02:41:17;;;;;;;1.08;0.70;;;22.30;47.40;;;;;;5009707;28;20084;-64
2024/04/03 02:43:43;;;;;;;1.08;0.60;;;22.30;47.40;;;;;;5010246;28;20450;-64
2024/04/03 02:46:09;;;;;;;1.25;0.52;;;22.20;47.40;;;;;;5010231;28;20033;-64
2024/04/03 02:48:34;;;;;;;2.45;0.90;;;22.20;47.40;;;;;;5009888;28;20045;-65
2024/04/03 02:51:09;;;;;;;2.00;0.80;;;22.30;47.40;;;;;;5009127;28;20040;-65
2024/04/03 02:53:35;;;;;;;1.30;0.80;;;22.20;47.40;;;;;;5009790;28;20037;-65
2024/04/03 02:56:06;;;;;;;1.00;0.80;;;22.20;47.40;;;;;;5009368;28;20064;-65
2024/04/03 02:58:35;;;;;;;1.00;0.70;;;22.20;47.40;;;;;;5009706;28;20077;-65
2024/04/03 03:01:06;;;;;;;1.02;0.73;;;22.20;47.40;;;;;;5009736;28;20458;-65
2024/04/03 03:03:32;;;;;;;1.60;0.90;;;22.20;47.40;;;;;;5009627;28;20416;-65
2024/04/03 03:05:59;;;;;;;1.15;0.70;;;22.20;47.40;;;;;;5008540;28;20038;-65
2024/04/03 03:08:26;;;;;;;1.30;0.77;;;22.20;47.50;;;;;;5009559;28;20045;-66
2024/04/03 03:10:52;;;;;;;1.13;0.80;;;22.20;47.50;;;;;;5009060;28;20907;-65
2024/04/03 03:13:18;;;;;;;1.67;0.80;;;22.20;47.50;;;;;;5009699;28;20034;-65
2024/04/03 03:15:54;;;;;;;1.50;0.80;;;22.20;47.50;;;;;;5009403;28;20501;-65
2024/04/03 03:18:21;;;;;;;1.17;0.80;;;22.20;47.50;;;;;;5009474;28;20022;-65
2024/04/03 03:20:48;;;;;;;1.15;0.70;;;22.10;47.50;;;;;;5008353;28;20058;-65
2024/04/03 03:23:13;;;;;;;1.00;0.68;;;22.10;47.50;;;;;;5009244;28;20037;-65
2024/04/03 03:25:39;;;;;;;1.40;0.90;;;22.10;47.50;;;;;;5009428;28;20026;-65
2024/04/03 03:28:05;;;;;;;1.20;0.77;;;22.10;47.50;;;;;;5008804;28;20036;-65
2024/04/03 03:30:30;;;;;;;1.25;0.80;;;22.10;47.50;;;;;;5009183;28;20026;-65
2024/04/03 03:32:56;;;;;;;1.00;0.70;;;22.10;47.50;;;;;;5009220;28;20044;-65
2024/04/03 03:35:22;;;;;;;1.35;0.80;;;22.10;47.60;;;;;;5008217;28;20022;-65
2024/04/03 03:37:47;;;;;;;1.48;0.80;;;22.10;47.50;;;;;;5009048;28;20034;-65
2024/04/03 03:40:13;;;;;;;1.45;0.80;;;22.10;47.50;;;;;;5008979;28;20620;-65
2024/04/03 03:42:39;;;;;;;1.10;0.80;;;22.10;47.50;;;;;;5009196;28;20394;-65
2024/04/03 03:45:05;;;;;;;1.33;0.70;;;22.10;47.60;;;;;;5009137;28;20038;-61
2024/04/03 03:47:31;;;;;;;1.35;0.70;;;22.10;47.60;;;;;;5009166;28;20033;-61
2024/04/03 03:52:41;;;;;;;1.08;0.70;;;22.10;47.60;;;;;;5008831;28;20025;-62
2024/04/03 03:55:07;;;;;;;0.90;0.70;;;22.10;47.60;;;;;;5008937;28;20084;-61
2024/04/03 03:57:32;;;;;;;1.38;0.80;;;22.10;47.60;;;;;;5008946;28;20032;-61
2024/04/03 03:59:58;;;;;;;1.33;0.80;;;22.10;47.60;;;;;;5008919;28;20026;-62
2024/04/03 04:02:25;;;;;;;1.05;0.70;;;22.00;47.60;;;;;;5009251;28;20030;-61
2024/04/03 04:04:53;;;;;;;1.05;0.80;;;22.00;47.60;;;;;;5007966;28;20221;-62
2024/04/03 04:07:20;;;;;;;1.13;0.70;;;22.00;47.60;;;;;;5008833;28;20120;-61
2024/04/03 04:09:50;;;;;;;1.15;0.70;;;22.00;47.60;;;;;;5008837;28;20406;-63
2024/04/03 04:12:18;;;;;;;1.13;0.70;;;22.00;47.60;;;;;;5008593;28;20072;-62
2024/04/03 04:14:53;;;;;;;1.13;0.70;;;22.00;47.60;;;;;;5008783;28;20053;-63
2024/04/03 04:17:22;;;;;;;1.48;0.88;;;22.00;47.60;;;;;;5008711;28;20028;-62
2024/04/03 04:19:47;;;;;;;0.63;0.60;;;22.00;47.60;;;;;;5007782;28;20066;-63
2024/04/03 04:22:13;;;;;;;0.73;0.60;;;22.00;47.60;;;;;;5008603;28;20060;-63
2024/04/03 04:24:39;;;;;;;1.15;0.70;;;22.00;47.70;;;;;;5009357;28;20092;-64
2024/04/03 04:27:08;;;;;;;0.65;0.55;;;21.90;47.60;;;;;;5012658;28;20080;-65
2024/04/03 04:29:40;;;;;;;0.77;0.68;;;22.00;47.70;;;;;;5012548;28;20547;-65
2024/04/03 04:32:09;;;;;;;1.00;0.70;;;21.90;47.60;;;;;;5012291;28;20096;-65
2024/04/03 04:34:41;;;;;;;;;;;21.90;47.70;;;;;;5012844;28;20115;-63
2024/04/03 04:37:07;;;;;;;0.93;0.70;;;21.90;48.20;;;;;;5011024;28;19909;-61
2024/04/03 04:39:33;;;;;;;0.57;0.55;;;21.90;47.70;;;;;;5012556;28;20547;-61
2024/04/03 04:41:58;;;;;;;0.75;0.60;;;21.90;47.70;;;;;;5012086;28;20486;-61
2024/04/03 04:44:24;;;;;;;1.00;0.65;;;21.90;47.70;;;;;;5012328;28;20492;-62
2024/04/03 04:46:54;;;;;;;1.08;0.60;;;21.90;47.70;;;;;;5012014;28;20066;-62
2024/04/03 04:49:21;;;;;;;0.60;0.55;;;21.90;47.70;;;;;;5012172;28;20033;-61
2024/04/03 04:51:47;;;;;;;0.82;0.63;;;21.90;47.70;;;;;;5011007;28;20032;-61
2024/04/03 04:54:17;;;;;;;0.88;0.60;;;21.90;47.80;;;;;;5011559;28;20065;-65
2024/04/03 04:56:46;;;;;;;0.93;0.70;;;21.90;47.80;;;;;;5011635;28;21017;-65
2024/04/03 04:59:14;;;;;;;1.65;0.68;;;21.90;47.80;;;;;;5012047;28;20026;-65
2024/04/03 05:01:40;;;;;;;1.33;0.70;;;21.90;47.80;;;;;;5012058;28;20505;-65
2024/04/03 05:04:07;;;;;;;1.00;0.68;;;21.90;47.80;;;;;;5011912;28;20561;-65
2024/04/03 05:06:33;;;;;;;1.98;0.68;;;21.90;47.80;;;;;;5010598;28;20037;-65
2024/04/03 05:09:00;;;;;;;0.93;0.60;;;21.80;47.80;;;;;;5011710;28;20029;-65
2024/04/03 05:11:26;;;;;;;0.88;0.73;;;21.90;47.80;;;;;;5011134;28;20025;-65
2024/04/03 05:13:52;;;;;;;0.80;0.70;;;21.80;47.80;;;;;;5011608;28;20431;-65
2024/04/03 05:16:19;;;;;;;1.25;0.85;;;21.80;47.80;;;;;;5011855;28;20036;-65
2024/04/03 05:18:45;;;;;;;1.00;0.70;;;21.80;47.80;;;;;;5011507;28;20080;-65
2024/04/03 05:21:11;;;;;;;2.05;0.70;;;21.80;47.80;;;;;;5010106;28;20467;-65
2024/04/03 05:23:37;;;;;;;1.25;0.70;;;21.80;47.80;;;;;;5011406;28;20129;-65
2024/04/03 05:26:06;;;;;;;0.98;0.70;;;21.80;47.80;;;;;;5011695;28;20492;-65
2024/04/03 05:28:33;;;;;;;0.90;0.65;;;21.80;47.90;;;;;;5011226;28;20022;-65
2024/04/03 05:31:06;;;;;;;0.70;0.50;;;21.80;47.80;;;;;;5011349;28;20048;-65
2024/04/03 05:33:33;;;;;;;1.02;0.60;;;21.80;48.40;;;;;;5011009;28;20026;-65
2024/04/03 05:36:00;;;;;;;0.60;0.60;;;21.80;47.80;;;;;;5009793;28;20064;-65
2024/04/03 05:38:27;;;;;;;1.00;0.80;;;21.80;47.90;;;;;;5010715;28;20474;-65
2024/04/03 05:40:53;;;;;;;1.00;0.60;;;21.80;47.90;;;;;;5010771;28;20124;-64
2024/04/03 05:43:19;;;;;;;0.85;0.50;;;21.80;47.90;;;;;;5011083;28;21021;-64
2024/04/03 05:45:45;;;;;;;0.70;0.57;;;21.80;47.90;;;;;;5010489;28;20109;-64
2024/04/03 05:48:12;;;;;;;0.77;0.60;;;21.80;47.90;;;;;;5010982;28;20081;-65
2024/04/03 05:50:38;;;;;;;0.52;0.50;;;21.80;47.90;;;;;;4992131;28;20695;-64
2024/04/03 05:53:04;;;;;;;0.70;0.50;;;21.80;47.80;;;;;;5010728;28;20117;-64
2024/04/03 05:55:30;;;;;;;1.13;0.60;;;21.80;47.80;;;;;;5010810;28;20053;-64
2024/04/03 05:57:56;;;;;;;1.45;0.80;;;21.70;47.70;;;;;;5010530;28;20025;-64
2024/04/03 06:00:21;;;;;;;1.20;0.80;;;21.70;47.70;;;;;;5010838;28;20029;-64
2024/04/03 06:02:47;;;;;;;0.88;0.70;;;21.70;47.60;;;;;;5010865;28;20026;-63
2024/04/03 06:05:14;;;;;;;1.60;0.90;;;21.70;47.50;;;;;;5010840;28;20070;-65
2024/04/03 06:07:40;;;;;;;1.17;0.80;;;21.70;47.50;;;;;;5009315;28;20018;-65
2024/04/03 06:10:06;;;;;;;1.73;1.10;;;21.70;47.50;;;;;;5010406;28;20513;-65
2024/04/03 06:12:32;;;;;;;1.70;1.00;;;21.70;47.40;;;;;;5010295;28;20394;-64
2024/04/03 06:14:58;;;;;;;1.60;1.00;;;21.70;47.40;;;;;;5010383;28;20038;-66
2024/04/03 06:17:24;;;;;;;1.63;1.00;;;21.70;47.40;;;;;;5010439;28;20026;-66
2024/04/03 06:19:50;;;;;;;1.33;1.00;;;21.70;47.30;;;;;;5010140;28;20075;-65
2024/04/03 06:22:15;;;;;;;1.67;1.00;;;21.70;47.30;;;;;;5009218;28;20045;-65
2024/04/03 06:24:42;;;;;;;1.20;1.00;;;21.70;47.30;;;;;;5010267;28;20113;-65
2024/04/03 06:27:08;;;;;;;1.45;1.00;;;21.70;47.20;;;;;;5009609;28;20080;-65
2024/04/03 06:29:34;;;;;;;1.40;1.05;;;21.70;47.20;;;;;;5010536;28;20054;-65
2024/04/03 06:32:01;;;;;;;1.33;0.95;;;21.70;47.20;;;;;;5010241;28;20034;-65
2024/04/03 06:34:27;;;;;;;1.75;1.05;;;21.70;47.20;;;;;;5009794;28;20382;-66
2024/04/03 06:36:52;;;;;;;1.55;1.00;;;21.70;47.10;;;;;;5009095;28;20033;-66
2024/04/03 06:39:19;;;;;;;1.35;1.00;;;21.70;47.00;;;;;;5010083;28;20034;-65
2024/04/03 06:41:44;;;;;;;1.10;0.90;;;21.70;47.00;;;;;;5009864;28;20064;-65
2024/04/03 06:44:10;;;;;;;1.50;1.08;;;21.60;47.00;;;;;;4991932;28;20057;-65
2024/04/03 06:46:35;;;;;;;1.52;1.00;;;21.70;47.00;;;;;;5010148;28;20042;-66
2024/04/03 06:49:01;;;;;;;1.40;1.00;;;21.60;47.00;;;;;;5009651;28;20647;-66
2024/04/03 06:51:26;;;;;;;1.60;1.00;;;21.60;46.90;;;;;;5008743;28;20033;-65
2024/04/03 06:53:52;;;;;;;1.35;1.00;;;21.60;46.90;;;;;;5009950;28;20041;-65
2024/04/03 06:56:18;;;;;;;1.60;1.08;;;21.60;46.90;;;;;;5009692;28;20470;-65
2024/04/03 06:58:43;;;;;;;1.80;1.10;;;21.60;46.90;;;;;;5009808;28;20029;-65
2024/04/03 07:01:13;;;;;;;1.42;1.00;;;21.60;46.90;;;;;;5009761;28;20438;-65
2024/04/03 07:03:39;;;;;;;1.85;1.10;;;21.60;47.00;;;;;;5009605;28;20459;-65
2024/04/03 07:06:08;;;;;;;1.98;1.20;;;21.60;47.00;;;;;;5008736;28;20037;-64
2024/04/03 07:08:34;;;;;;;1.55;1.08;;;21.60;47.00;;;;;;5009634;28;20029;-64
2024/04/03 07:11:01;;;;;;;1.58;1.08;;;21.60;47.00;;;;;;4991591;28;20041;-64
2024/04/03 07:13:27;;;;;;;1.27;1.00;;;21.60;47.00;;;;;;5008890;28;20088;-65
2024/04/03 07:15:53;;;;;;;1.70;1.13;;;21.60;47.00;;;;;;5009539;28;20026;-64
2024/04/03 07:18:19;;;;;;;1.25;1.00;;;21.60;47.10;;;;;;5009322;28;20022;-64
2024/04/03 07:20:57;;;;;;;1.50;1.00;;;21.60;47.10;;;;;;5009632;28;20030;-64
2024/04/03 07:23:26;;;;;;;1.40;1.00;;;21.60;47.10;;;;;;5008621;28;20481;-64
2024/04/03 07:25:55;;;;;;;1.27;1.00;;;21.60;47.10;;;;;;5009604;28;20378;-62
2024/04/03 07:28:22;;;;;;;1.80;1.10;;;21.60;47.20;;;;;;5009075;28;20063;-63
2024/04/03 07:30:48;;;;;;;1.45;1.05;;;21.60;47.20;;;;;;5009108;28;20049;-62
2024/04/03 07:33:13;;;;;;;1.58;1.10;;;21.50;47.10;;;;;;5009146;28;20026;-63
2024/04/03 07:35:40;;;;;;;1.48;0.90;;;21.60;47.20;;;;;;5009317;28;20087;-63
2024/04/03 07:38:06;;;;;;;1.77;1.10;;;21.60;47.70;;;;;;5007752;28;20049;-62
2024/04/03 07:40:32;;;;;;;1.23;0.98;;;21.60;47.20;;;;;;5009242;28;20030;-62
2024/04/03 07:42:58;;;;;;;1.40;0.95;;;21.60;47.20;;;;;;5008709;28;20018;-63
2024/04/03 07:45:24;;;;;;;1.80;1.00;;;21.60;47.20;;;;;;5009036;28;20390;-63
2024/04/03 07:47:50;;;;;;;1.45;0.90;;;21.60;47.20;;;;;;5009154;28;20466;-62
2024/04/03 07:50:16;;;;;;;1.70;1.13;;;21.50;47.20;;;;;;5009290;28;20049;-63
2024/04/03 07:52:42;;;;;;;1.45;1.10;;;21.50;47.20;;;;;;5007851;28;20446;-62
2024/04/03 07:55:12;;;;;;;1.52;1.08;;;21.50;47.30;;;;;;5008886;28;20119;-64
2024/04/03 07:57:39;;;;;;;1.73;0.90;;;21.50;47.30;;;;;;5008712;28;20037;-63
2024/04/03 08:00:06;;;;;;;1.30;1.02;;;21.50;47.30;;;;;;5010116;28;20057;-62
2024/04/03 08:02:40;;;;;;;2.00;1.20;;;21.50;47.30;;;;;;5012633;28;20474;-63
2024/04/03 08:05:11;;;;;;;1.40;1.00;;;21.50;47.80;;;;;;5012771;28;20029;-62
2024/04/03 08:07:37;;;;;;;1.77;1.02;;;21.50;47.30;;;;;;5011806;28;20030;-63
2024/04/03 08:10:09;;;;;;;1.23;1.00;;;21.50;47.30;;;;;;5012519;28;20457;-62
2024/04/03 08:12:37;;;;;;;1.10;0.90;;;21.50;47.30;;;;;;5012435;28;20029;-62
2024/04/03 08:15:04;;;;;;;1.20;1.00;;;21.50;47.40;;;;;;5012419;28;20140;-65
2024/04/03 08:17:29;;;;;;;1.30;0.80;;;21.50;47.40;;;;;;5012524;28;20371;-65
2024/04/03 08:19:56;;;;;;;1.02;0.82;;;21.50;47.40;;;;;;5012073;28;20033;-65
2024/04/03 08:22:22;;;;;;;0.95;0.80;;;21.50;47.40;;;;;;4993432;28;20022;-65
2024/04/03 08:24:49;;;;;;;1.10;0.90;;;21.50;47.40;;;;;;5012419;28;20121;-63
2024/04/03 08:27:15;;;;;;;1.67;1.00;;;21.50;47.40;;;;;;5011944;28;20100;-63
2024/04/03 08:29:46;;;;;;;1.23;0.90;;;21.50;47.40;;;;;;5012447;28;20025;-61
2024/04/03 08:32:18;;;;;;;1.50;1.00;;;21.50;47.40;;;;;;5012205;28;20601;-62
2024/04/03 08:34:44;;;;;;;0.95;0.80;;;21.50;47.70;;;;;;5012553;28;20124;-65
2024/04/03 08:37:12;;;;;;;1.13;0.80;;;21.50;47.40;;;;;;5011127;28;20493;-65
2024/04/03 08:39:38;;;;;;;1.48;1.00;;;21.50;47.50;;;;;;5012345;28;20114;-65
2024/04/03 08:42:04;;;;;;;1.17;0.85;;;21.50;47.40;;;;;;5002415;28;20069;-65
2024/04/03 08:44:34;;;;;;;1.50;0.90;;;21.50;47.50;;;;;;5012212;28;20080;-66
2024/04/03 08:47:00;;;;;;;1.73;1.02;;;21.50;47.50;;;;;;5011859;28;20523;-66
2024/04/03 08:49:33;;;;;;;1.25;0.90;;;21.50;47.50;;;;;;5012184;28;20069;-65
2024/04/03 08:52:01;;;;;;;1.85;1.00;;;21.50;47.50;;;;;;5010679;28;20030;-65
2024/04/03 08:54:28;;;;;;;1.67;1.00;;;21.40;47.60;;;;;;5011815;28;20045;-65
2024/04/03 08:56:55;;;;;;;1.23;1.00;;;21.50;47.80;;;;;;5012003;28;20041;-65
2024/04/03 08:59:20;;;;;;;0.95;0.80;;;21.50;47.90;;;;;;5011679;28;20049;-65
2024/04/03 09:01:52;;;;;;;3.13;1.10;;;21.60;47.90;;;;;;5011736;28;20478;-65
2024/04/03 09:04:21;;;;;;;1.02;0.85;;;21.60;48.40;;;;;;5011658;28;20034;-65
2024/04/03 09:06:47;;;;;;;1.63;0.95;;;21.60;48.00;;;;;;5011946;28;20473;-65
2024/04/03 09:09:20;;;;;;;1.13;0.90;;;21.70;48.00;;;;;;5010069;28;20507;-65
2024/04/03 09:11:47;;;;;;;0.95;0.80;;;21.70;47.90;;;;;;5010864;28;20402;-65
2024/04/03 09:14:22;;;;;;;1.00;0.80;;;21.80;47.90;;;;;;5011204;28;20489;-65
2024/04/03 09:16:48;;;;;;;1.50;0.95;;;21.80;47.90;;;;;;5011449;28;20042;-65
2024/04/03 09:19:14;;;;;;;1.38;0.80;;;21.80;47.80;;;;;;5011532;28;20061;-65
2024/04/03 09:21:45;;;;;;;1.30;0.95;;;21.90;47.90;;;;;;5011654;28;20030;-65
2024/04/03 09:24:11;;;;;;;1.20;0.85;;;21.90;47.80;;;;;;5010231;28;20026;-65
2024/04/03 09:26:56;;;;;;;1.65;1.00;;;22.00;47.90;;;;;;5011210;28;20047;-65
2024/04/03 09:29:23;;;;;;;1.90;1.13;;;22.00;47.80;;;;;;5010800;28;20037;-65
2024/04/03 09:31:50;;;;;;;1.90;0.93;;;22.10;47.70;;;;;;5011060;28;20450;-64
2024/04/03 09:34:15;;;;;;;1.52;1.00;;;22.10;47.60;;;;;;5011006;28;20076;-65
2024/04/03 09:36:42;;;;;;;1.50;1.00;;;22.10;47.50;;;;;;5010913;28;20049;-65
2024/04/03 09:39:11;;;;;;;3.08;1.00;;;22.10;47.50;;;;;;5009609;28;20546;-65
2024/04/03 09:41:41;;;;;;;1.88;1.10;;;22.10;47.60;;;;;;5010963;28;20558;-65
2024/04/03 09:44:10;;;;;;;1.33;1.00;;;22.10;47.60;;;;;;5009634;28;20056;-65
2024/04/03 09:46:51;;;;;;;1.30;0.90;;;22.10;47.60;;;;;;5010800;28;20044;-65
2024/04/03 09:49:21;;;;;;;1.35;1.00;;;22.10;47.50;;;;;;5010720;28;20038;-65
2024/04/03 09:51:48;;;;;;;1.52;0.90;;;22.10;47.60;;;;;;5010478;28;20467;-65
2024/04/03 09:54:15;;;;;;;1.60;0.90;;;22.10;47.50;;;;;;5009566;28;20636;-65
2024/04/03 09:56:41;;;;;;;1.25;0.90;;;22.10;47.60;;;;;;5010837;28;20029;-65
2024/04/03 09:59:07;;;;;;;1.25;0.90;;;22.10;47.60;;;;;;5010723;28;20124;-65
2024/04/03 10:01:35;;;;;;;2.03;0.82;;;22.20;47.60;;;;;;5010987;28;20184;-64
2024/04/03 10:04:04;;;;;;;1.65;1.00;;;22.10;47.70;;;;;;5010648;28;20061;-64
2024/04/03 10:06:37;;;;;;;1.52;0.90;;;22.20;47.70;;;;;;5010739;28;20109;-64
2024/04/03 10:09:32;;;;;;;1.08;0.77;;;22.10;47.80;;;;;;5009197;28;20042;-65
2024/04/03 10:11:59;;;;;;;1.77;1.00;;;22.20;47.90;;;;;;5010401;28;20498;-64
2024/04/03 10:14:35;;;;;;;1.23;0.88;;;22.20;47.80;;;;;;5010201;28;20029;-65
2024/04/03 10:17:01;;;;;;;0.90;0.80;;;22.10;47.70;;;;;;5010048;28;20033;-65
2024/04/03 10:19:40;;;;;;;1.38;0.80;;;22.20;47.80;;;;;;5010492;28;20034;-64
2024/04/03 10:22:05;;;;;;;2.17;0.95;;;22.20;47.80;;;;;;5009539;28;20354;-65
2024/04/03 10:24:31;;;;;;;1.40;0.90;;;22.20;47.80;;;;;;5008520;28;20054;-64
2024/04/03 10:26:57;;;;;;;1.10;0.80;;;22.20;47.70;;;;;;5010098;28;20442;-65
2024/04/03 10:29:23;;;;;;;1.25;0.80;;;22.20;47.70;;;;;;5010182;28;20032;-64
2024/04/03 10:31:49;;;;;;;1.52;0.77;;;22.20;47.60;;;;;;5010158;28;20113;-64
2024/04/03 10:34:18;;;;;;;0.85;0.70;;;22.20;47.60;;;;;;5010050;28;20041;-65
2024/04/03 10:36:44;;;;;;;1.13;0.80;;;22.20;47.60;;;;;;5010175;28;20033;-65
2024/04/03 10:39:10;;;;;;;1.30;0.82;;;22.20;47.60;;;;;;5009021;28;20453;-65
2024/04/03 10:41:37;;;;;;;1.83;0.80;;;22.20;47.70;;;;;;5010025;28;20038;-65
2024/04/03 10:44:02;;;;;;;2.40;0.80;;;22.20;47.60;;;;;;5009691;28;20048;-63
2024/04/03 10:46:28;;;;;;;1.45;0.90;;;22.10;48.00;;;;;;5009800;28;20029;-63
2024/04/03 10:48:56;;;;;;;0.90;0.70;;;22.20;47.60;;;;;;5009985;28;20041;-63
2024/04/03 10:51:22;;;;;;;1.30;0.80;;;22.10;47.60;;;;;;5009625;28;20057;-63
2024/04/03 10:53:49;;;;;;;1.42;0.80;;;22.10;47.70;;;;;;5008762;28;20029;-63
2024/04/03 10:56:18;;;;;;;1.33;0.90;;;22.10;47.70;;;;;;5009838;28;20113;-64
2024/04/03 10:58:44;;;;;;;1.80;1.00;;;22.10;47.70;;;;;;5009226;28;20022;-64
2024/04/03 11:01:11;;;;;;;1.60;0.90;;;22.20;47.80;;;;;;5009845;28;20033;-64
2024/04/03 11:03:42;;;;;;;1.65;1.05;;;22.20;47.80;;;;;;5009660;28;20026;-64
2024/04/03 11:06:09;;;;;;;1.25;0.98;;;22.20;47.70;;;;;;5009842;28;20046;-64
2024/04/03 11:08:35;;;;;;;1.42;1.00;;;22.20;47.70;;;;;;5008526;28;20095;-64
2024/04/03 11:11:10;;;;;;;2.08;0.90;;;22.20;47.70;;;;;;5009678;28;20079;-64
2024/04/03 11:13:47;;;;;;;1.80;0.90;;;22.20;48.00;;;;;;5007556;28;20038;-64
2024/04/03 11:16:12;;;;;;;1.45;0.80;;;22.20;47.90;;;;;;5009555;28;20394;-64
2024/04/03 11:18:38;;;;;;;1.80;0.82;;;22.20;47.90;;;;;;5009551;28;20022;-64
2024/04/03 11:21:06;;;;;;;1.52;0.90;;;22.20;47.90;;;;;;5009315;28;20033;-64
2024/04/03 11:23:37;;;;;;;1.60;1.00;;;22.20;47.90;;;;;;5008487;28;20040;-64
2024/04/03 11:26:03;;;;;;;1.65;0.98;;;22.20;47.90;;;;;;5008856;28;20062;-64
2024/04/03 11:28:29;;;;;;;1.25;0.82;;;22.20;47.90;;;;;;5009109;28;20489;-64
2024/04/03 11:30:55;;;;;;;1.23;0.90;;;22.20;48.00;;;;;;5009091;28;20362;-64
2024/04/03 11:33:20;;;;;;;2.22;0.80;;;22.20;48.00;;;;;;5009180;28;20034;-64
2024/04/03 11:35:46;;;;;;;1.10;0.80;;;22.20;48.00;;;;;;5009085;28;20172;-64
2024/04/03 11:38:12;;;;;;;2.88;1.02;;;22.20;48.00;;;;;;5007933;28;20109;-64
2024/04/03 11:40:38;;;;;;;1.48;1.10;;;22.20;48.10;;;;;;5009218;28;20029;-64
2024/04/03 11:43:03;;;;;;;1.45;0.82;;;22.30;48.10;;;;;;5009537;28;20022;-64
2024/04/03 11:45:29;;;;;;;1.50;0.90;;;22.30;48.10;;;;;;5009052;28;20101;-64
2024/04/03 11:47:54;;;;;;;1.92;0.85;;;22.30;48.10;;;;;;5009289;28;20025;-64
2024/04/03 11:50:20;;;;;;;3.58;1.00;;;22.30;48.30;;;;;;5009027;28;20057;-64
2024/04/03 11:52:46;;;;;;;2.92;1.00;;;22.30;48.30;;;;;;5008944;28;20029;-63
2024/04/03 11:55:11;;;;;;;1.20;0.73;;;22.30;48.30;;;;;;5008377;28;20111;-63
2024/04/03 11:57:37;;;;;;;1.92;0.90;;;22.30;49.20;;;;;;5009139;28;20030;-63
2024/04/03 12:00:05;;;;;;;1.88;0.80;;;22.30;49.60;;;;;;5008687;28;20037;-63
2024/04/03 12:02:30;;;;;;;1.77;1.00;;;22.30;49.20;;;;;;5008992;28;20095;-64
2024/04/03 12:04:56;;;;;;;1.17;0.80;;;22.30;49.30;;;;;;5008970;28;20037;-64
2024/04/03 12:07:22;;;;;;;1.70;0.80;;;22.30;49.50;;;;;;5008748;28;20050;-64
2024/04/03 12:09:48;;;;;;;0.95;0.70;;;22.30;49.40;;;;;;5007870;28;20498;-64
2024/04/03 12:12:14;;;;;;;1.77;0.90;;;22.30;49.30;;;;;;5008824;28;20030;-64
2024/04/03 12:14:39;;;;;;;1.40;0.88;;;22.40;49.20;;;;;;5008532;28;20026;-64
2024/04/03 12:17:05;;;;;;;1.63;0.80;;;22.30;49.00;;;;;;5009098;28;20026;-63
2024/04/03 12:19:44;;;;;;;1.73;0.88;;;22.30;48.90;;;;;;5008775;28;20026;-64
2024/04/03 12:22:12;;;;;;;1.00;0.80;;;22.30;48.90;;;;;;5009129;28;20108;-63
2024/04/03 12:24:37;;;;;;;2.50;1.00;;;22.40;48.90;;;;;;5006897;28;20026;-64
2024/04/03 12:27:03;;;;;;;1.63;1.00;;;22.40;48.80;;;;;;5008579;28;20048;-64
2024/04/03 12:29:29;;;;;;;1.27;0.85;;;22.40;48.80;;;;;;5008231;28;20018;-64
2024/04/03 12:31:54;;;;;;;1.05;0.82;;;22.40;48.80;;;;;;5008745;28;20450;-64
2024/04/03 12:34:20;;;;;;;1.83;0.82;;;22.40;48.80;;;;;;5008654;28;20339;-64
2024/04/03 12:36:46;;;;;;;1.13;0.90;;;22.30;48.80;;;;;;5008649;28;20034;-64
2024/04/03 12:39:11;;;;;;;1.20;0.80;;;22.30;48.70;;;;;;5007438;28;20382;-63
2024/04/03 12:41:37;;;;;;;1.40;1.00;;;22.40;49.00;;;;;;5008738;28;20030;-64
2024/04/03 12:44:03;;;;;;;1.30;0.70;;;22.40;49.40;;;;;;5008191;28;20026;-64
2024/04/03 12:46:29;;;;;;;1.02;0.68;;;22.40;49.80;;;;;;5010445;28;20044;-64
2024/04/03 12:48:56;;;;;;;1.27;0.80;;;22.40;49.90;;;;;;5012522;28;20398;-64